Time;durP1;ratioP1;P1;durP2;ratioP2;P2;SDS_P1;SDS_P2;PMS_P1;PMS_P2;Temp;Humidity;BMP_temperature;BMP_pressure;BME280_temperature;BME280_humidity;BME280_pressure;Samples;Min_cycle;Max_cycle;Signal;HPM_P1;HPM_P2
2024/01/12 00:02:14;;;;;;;2.60;1.80;;;21.50;47.30;;;;;;10155535;28;20063;-51
2024/01/12 00:07:16;;;;;;;;;;;21.30;47.70;;;;;;10141850;28;20102;-53
2024/01/12 00:12:18;;;;;;;5.60;2.15;;;21.50;47.40;;;;;;10140392;28;20010;-53
2024/01/12 00:17:20;;;;;;;2.17;1.80;;;21.40;47.30;;;;;;10155084;28;20144;-58
2024/01/12 00:22:22;;;;;;;1.90;1.50;;;21.50;47.50;;;;;;10155753;28;20068;-51
2024/01/12 00:27:25;;;;;;;3.15;1.80;;;21.30;47.70;;;;;;10156108;28;20055;-48
2024/01/12 00:32:26;;;;;;;2.67;1.90;;;21.30;47.40;;;;;;10154095;28;20588;-57
2024/01/12 00:37:28;;;;;;;2.17;1.70;;;21.30;47.20;;;;;;10149893;28;20052;-49
2024/01/12 00:42:31;;;;;;;2.97;1.80;;;21.20;47.50;;;;;;10150265;28;20048;-54
2024/01/12 00:47:32;;;;;;;2.47;1.65;;;21.10;47.60;;;;;;10144217;28;20041;-49
2024/01/12 00:52:34;;;;;;;1.63;1.52;;;21.40;47.10;;;;;;10152088;28;20070;-52
2024/01/12 00:57:37;;;;;;;3.55;1.77;;;21.20;47.20;;;;;;10155441;28;20070;-54
2024/01/12 01:02:39;;;;;;;2.55;1.67;;;21.30;47.20;;;;;;10154460;28;20058;-51
2024/01/12 01:07:40;;;;;;;2.28;1.73;;;21.10;47.50;;;;;;10150892;28;20074;-56
2024/01/12 01:12:43;;;;;;;2.97;1.65;;;21.10;47.30;;;;;;10156267;28;20071;-52
2024/01/12 01:17:45;;;;;;;2.70;1.70;;;21.10;47.10;;;;;;10147856;28;20051;-56
2024/01/12 01:22:47;;;;;;;3.20;1.52;;;21.00;47.70;;;;;;10146367;28;20139;-54
2024/01/12 01:27:50;;;;;;;2.65;1.70;;;21.00;47.30;;;;;;10140731;28;20553;-52
2024/01/12 01:32:51;;;;;;;2.92;1.70;;;21.00;47.50;;;;;;10151834;28;20417;-52
2024/01/12 01:37:53;;;;;;;3.00;1.60;;;21.20;46.90;;;;;;10153207;28;20534;-55
2024/01/12 01:42:56;;;;;;;2.80;1.40;;;21.10;47.10;;;;;;10154498;28;20052;-50
2024/01/12 01:47:57;;;;;;;1.95;1.60;;;21.00;47.20;;;;;;10152469;28;20048;-49
2024/01/12 01:52:59;;;;;;;2.58;1.70;;;21.10;47.10;;;;;;10145216;28;20060;-51
2024/01/12 01:58:02;;;;;;;1.92;1.50;;;21.00;47.30;;;;;;10143199;28;20048;-52
2024/01/12 02:03:04;;;;;;;1.85;1.30;;;20.90;47.40;;;;;;10144697;28;20146;-56
2024/01/12 02:08:06;;;;;;;1.60;1.50;;;20.80;47.30;;;;;;10145189;28;20080;-52
2024/01/12 02:13:09;;;;;;;2.58;1.55;;;20.80;47.40;;;;;;10154993;28;20777;-57
2024/01/12 02:18:10;;;;;;;2.45;1.40;;;20.70;47.60;;;;;;10149033;28;20048;-57
2024/01/12 02:23:13;;;;;;;2.92;1.58;;;20.90;47.00;;;;;;10152478;28;20055;-56
2024/01/12 02:28:15;;;;;;;2.03;1.60;;;20.80;47.10;;;;;;10151487;28;20056;-58
2024/01/12 02:33:17;;;;;;;3.53;1.40;;;20.70;47.40;;;;;;10142513;28;20506;-54
2024/01/12 02:38:20;;;;;;;1.60;1.50;;;20.50;48.00;;;;;;10141652;28;20067;-57
2024/01/12 02:43:21;;;;;;;1.63;1.40;;;20.60;47.40;;;;;;10141445;28;20052;-49
2024/01/12 02:48:23;;;;;;;1.45;1.30;;;20.60;47.60;;;;;;10152187;28;20059;-50
2024/01/12 02:53:26;;;;;;;2.22;1.45;;;20.60;47.50;;;;;;10152057;28;20055;-49
2024/01/12 02:58:27;;;;;;;1.77;1.52;;;20.60;47.50;;;;;;10148002;28;20046;-55
2024/01/12 03:03:29;;;;;;;1.77;1.48;;;20.50;47.50;;;;;;10150089;28;20517;-56
2024/01/12 03:08:32;;;;;;;2.47;1.20;;;20.60;47.40;;;;;;10149111;28;20497;-49
2024/01/12 03:13:35;;;;;;;2.25;1.30;;;20.50;47.30;;;;;;10146293;28;20522;-48
2024/01/12 03:18:36;;;;;;;2.15;1.48;;;20.60;47.20;;;;;;10150641;28;20047;-50
2024/01/12 03:23:39;;;;;;;1.70;1.35;;;20.50;47.60;;;;;;10146107;28;20055;-49
2024/01/12 03:28:41;;;;;;;2.25;1.40;;;20.40;47.50;;;;;;10153235;28;20048;-51
2024/01/12 03:33:42;;;;;;;1.95;1.30;;;20.40;47.70;;;;;;10145667;28;20131;-53
2024/01/12 03:38:46;;;;;;;3.63;1.33;;;20.50;47.40;;;;;;10149876;28;20717;-49
2024/01/12 03:43:48;;;;;;;1.63;1.38;;;20.50;47.20;;;;;;10152624;28;20509;-53
2024/01/12 03:48:49;;;;;;;2.97;1.52;;;20.30;47.90;;;;;;10142348;28;20396;-54
2024/01/12 03:53:52;;;;;;;2.15;1.38;;;20.30;48.20;;;;;;10145306;28;20596;-50
2024/01/12 03:58:54;;;;;;;2.05;1.27;;;20.40;47.30;;;;;;10143285;28;20138;-50
2024/01/12 04:03:55;;;;;;;3.20;1.30;;;20.10;47.80;;;;;;10147742;28;20139;-54
2024/01/12 04:08:58;;;;;;;2.72;1.15;;;20.30;47.70;;;;;;10147698;28;20052;-51
2024/01/12 04:14:00;;;;;;;2.58;1.25;;;20.50;47.60;;;;;;10146191;28;20044;-53
2024/01/12 04:19:02;;;;;;;7.18;1.25;;;20.70;47.70;;;;;;10153045;28;20057;-55
2024/01/12 04:24:05;;;;;;;3.38;1.33;;;21.00;47.00;;;;;;10145630;28;20084;-53
2024/01/12 04:29:06;;;;;;;2.92;1.30;;;21.10;46.80;;;;;;10140886;28;20135;-49
2024/01/12 04:34:08;;;;;;;10.48;1.40;;;21.40;46.10;;;;;;10145352;28;20141;-48
2024/01/12 04:39:11;;;;;;;3.85;1.33;;;21.60;45.50;;;;;;10145268;28;20136;-54
2024/01/12 04:44:13;;;;;;;5.88;2.17;;;21.70;45.00;;;;;;10143018;28;20569;-54
2024/01/12 04:49:14;;;;;;;7.40;2.30;;;22.00;45.50;;;;;;10147125;28;20130;-52
2024/01/12 04:54:17;;;;;;;9.40;2.92;;;22.20;45.50;;;;;;10153469;28;20050;-53
2024/01/12 04:59:19;;;;;;;7.97;2.70;;;22.40;45.10;;;;;;10145186;28;20135;-50
2024/01/12 05:04:20;;;;;;;16.25;2.83;;;22.60;44.90;;;;;;10148724;28;20075;-54
2024/01/12 05:09:23;;;;;;;9.13;2.75;;;22.70;45.10;;;;;;10150102;28;20413;-56
2024/01/12 05:14:25;;;;;;;10.40;2.33;;;22.70;45.20;;;;;;10145994;28;20151;-57
2024/01/12 05:19:27;;;;;;;5.78;2.33;;;22.70;45.30;;;;;;10151349;28;20143;-55
2024/01/12 05:24:29;;;;;;;7.05;2.50;;;22.80;45.40;;;;;;10155819;28;20074;-54
2024/01/12 05:29:31;;;;;;;5.20;2.30;;;22.80;45.50;;;;;;10152137;28;20044;-53
2024/01/12 05:34:33;;;;;;;4.82;1.90;;;22.80;45.40;;;;;;10157029;28;20045;-48
2024/01/12 05:39:35;;;;;;;6.30;1.90;;;22.90;45.40;;;;;;10150481;28;20143;-49
2024/01/12 05:44:37;;;;;;;5.80;2.38;;;22.90;45.30;;;;;;10153099;28;20056;-50
2024/01/12 05:49:39;;;;;;;4.43;2.03;;;23.00;45.30;;;;;;10141318;28;20127;-57
2024/01/12 05:54:42;;;;;;;4.40;2.17;;;23.10;45.10;;;;;;10143471;28;20143;-52
2024/01/12 05:59:44;;;;;;;3.08;1.77;;;23.10;45.00;;;;;;10154486;28;20052;-50
2024/01/12 06:04:45;;;;;;;3.90;1.75;;;23.00;44.80;;;;;;10151503;28;20135;-56
2024/01/12 06:09:48;;;;;;;4.18;1.90;;;22.70;45.10;;;;;;10152287;28;20679;-56
2024/01/12 06:14:50;;;;;;;4.15;1.92;;;22.30;45.70;;;;;;10151141;28;20418;-55
2024/01/12 06:19:52;;;;;;;3.80;1.67;;;22.20;45.90;;;;;;10145851;28;20164;-58
2024/01/12 06:24:54;;;;;;;2.70;1.45;;;22.10;46.20;;;;;;10147656;28;20075;-53
2024/01/12 06:29:56;;;;;;;3.13;1.85;;;22.10;46.20;;;;;;10150512;28;20044;-56
2024/01/12 06:34:58;;;;;;;3.17;1.70;;;22.20;46.00;;;;;;10148062;28;20044;-55
2024/01/12 06:40:01;;;;;;;1.90;1.38;;;22.10;46.10;;;;;;10153286;28;20139;-55
2024/01/12 06:45:03;;;;;;;5.97;1.88;;;22.20;46.00;;;;;;10149303;28;20040;-56
2024/01/12 06:50:05;;;;;;;7.40;1.67;;;22.20;45.90;;;;;;10148396;28;20041;-53
2024/01/12 06:55:09;;;;;;;3.67;1.45;;;22.00;46.00;;;;;;10148849;28;20139;-56
2024/01/12 07:00:11;;;;;;;2.40;1.50;;;21.90;46.20;;;;;;10144608;28;20127;-56
2024/01/12 07:05:14;;;;;;;2.30;1.40;;;21.90;46.10;;;;;;10143083;28;20524;-55
2024/01/12 07:10:17;;;;;;;2.65;1.40;;;21.90;46.00;;;;;;10150992;28;20040;-52
2024/01/12 07:15:18;;;;;;;2.88;1.42;;;21.90;45.80;;;;;;10140993;28;20055;-57
2024/01/12 07:20:20;;;;;;;10.15;1.70;;;22.00;45.80;;;;;;10149753;28;20036;-52
2024/01/12 07:25:23;;;;;;;7.00;1.45;;;22.20;45.50;;;;;;10146993;28;20052;-51
2024/01/12 07:30:25;;;;;;;8.38;1.30;;;22.40;45.50;;;;;;10149438;28;20066;-55
2024/01/12 07:35:26;;;;;;;8.63;1.50;;;22.00;46.00;;;;;;10149675;28;20138;-55
2024/01/12 07:40:29;;;;;;;5.82;1.50;;;21.90;46.10;;;;;;10142296;28;20051;-55
2024/01/12 07:45:31;;;;;;;4.32;1.40;;;21.80;46.20;;;;;;10147026;28;20064;-56
2024/01/12 07:50:32;;;;;;;3.50;1.40;;;21.70;46.20;;;;;;10141184;28;20050;-52
2024/01/12 07:55:35;;;;;;;5.85;1.52;;;21.90;46.00;;;;;;10148299;28;20550;-50
2024/01/12 08:00:37;;;;;;;6.75;1.30;;;22.00;45.90;;;;;;10145425;28;20051;-49
2024/01/12 08:05:38;;;;;;;3.97;1.05;;;22.10;45.80;;;;;;10147939;28;20048;-53
2024/01/12 08:10:41;;;;;;;5.28;1.42;;;22.20;45.90;;;;;;10145979;28;20044;-50
2024/01/12 08:15:43;;;;;;;5.85;1.40;;;22.30;45.90;;;;;;10144008;28;20152;-48
2024/01/12 08:20:45;;;;;;;3.88;1.13;;;22.30;45.90;;;;;;10147372;28;20071;-54
2024/01/12 08:25:48;;;;;;;3.80;1.30;;;22.30;45.90;;;;;;10145130;28;20051;-48
2024/01/12 08:30:49;;;;;;;2.78;1.30;;;22.50;45.70;;;;;;10141218;28;20418;-54
2024/01/12 08:35:51;;;;;;;4.72;1.38;;;22.50;45.70;;;;;;10153379;28;20048;-49
2024/01/12 08:40:54;;;;;;;2.13;1.23;;;22.30;45.90;;;;;;10150645;28;20052;-51
2024/01/12 08:45:55;;;;;;;5.00;1.20;;;22.40;46.00;;;;;;10157956;29;20044;-54
2024/01/12 08:50:58;;;;;;;2.15;1.10;;;22.40;46.20;;;;;;10155142;28;20561;-50
2024/01/12 08:56:01;;;;;;;5.78;1.20;;;22.30;46.40;;;;;;10157644;28;20048;-50
2024/01/12 09:01:02;;;;;;;2.38;0.98;;;22.30;46.40;;;;;;10150701;28;20059;-57
2024/01/12 09:06:05;;;;;;;3.78;1.20;;;22.30;46.30;;;;;;10158604;28;20054;-54
2024/01/12 09:11:08;;;;;;;2.08;1.10;;;22.50;46.00;;;;;;10160994;28;20048;-49
2024/01/12 09:16:10;;;;;;;3.67;1.20;;;22.60;46.00;;;;;;10146591;28;20048;-51
2024/01/12 09:21:14;;;;;;;4.78;1.40;;;22.60;45.80;;;;;;10153679;28;20131;-52
2024/01/12 09:26:17;;;;;;;1.88;1.13;;;22.50;46.10;;;;;;10159371;28;20048;-51
2024/01/12 09:31:19;;;;;;;8.38;1.60;;;22.50;46.00;;;;;;10152451;28;20127;-52
2024/01/12 09:36:21;;;;;;;9.35;1.80;;;22.40;46.00;;;;;;10155603;28;20502;-49
2024/01/12 09:41:28;;;;;;;13.85;1.67;;;22.40;47.10;;;;;;10155423;28;20129;-54
2024/01/12 09:46:30;;;;;;;7.32;2.20;;;22.40;47.80;;;;;;10158183;28;20044;-49
2024/01/12 09:51:32;;;;;;;17.98;2.30;;;22.40;48.00;;;;;;10146861;28;20052;-51
2024/01/12 09:56:35;;;;;;;9.10;2.00;;;22.30;48.30;;;;;;10148030;28;20520;-49
2024/01/12 10:01:40;;;;;;;7.45;2.30;;;22.30;47.30;;;;;;10145142;28;20060;-49
2024/01/12 10:06:42;;;;;;;14.30;2.03;;;22.30;47.30;;;;;;10146212;28;20045;-52
2024/01/12 10:11:46;;;;;;;7.18;2.03;;;22.30;47.10;;;;;;10146088;28;20055;-53
2024/01/12 10:16:53;;;;;;;6.57;1.95;;;22.00;47.00;;;;;;10146014;28;20082;-51
2024/01/12 10:21:55;;;;;;;7.63;1.95;;;22.00;47.10;;;;;;10141668;28;20052;-51
2024/01/12 10:27:01;;;;;;;6.50;1.80;;;22.00;47.00;;;;;;10149989;28;20139;-52
2024/01/12 10:32:02;;;;;;;3.90;1.60;;;22.00;47.10;;;;;;10133353;28;20139;-53
2024/01/12 10:37:07;;;;;;;5.97;1.60;;;21.90;46.80;;;;;;10147034;28;20413;-49
2024/01/12 10:42:10;;;;;;;2.63;1.50;;;22.10;46.00;;;;;;10144101;28;20044;-50
2024/01/12 10:47:15;;;;;;;3.72;1.60;;;22.20;45.80;;;;;;10140715;28;20073;-52
2024/01/12 10:52:26;;;;;;;4.00;1.42;;;22.10;45.60;;;;;;10150681;28;20509;-51
2024/01/12 10:57:29;;;;;;;3.08;1.40;;;22.10;45.60;;;;;;10144571;28;20432;-52
2024/01/12 11:02:31;;;;;;;4.38;1.60;;;22.00;45.50;;;;;;10145584;28;20049;-49
2024/01/12 11:07:32;;;;;;;2.30;1.30;;;21.90;45.60;;;;;;10149471;28;20143;-52
2024/01/12 11:12:36;;;;;;;7.32;2.10;;;21.90;45.60;;;;;;10138919;28;20079;-52
2024/01/12 11:17:38;;;;;;;2.22;1.50;;;21.90;45.30;;;;;;10145187;28;20049;-49
2024/01/12 11:22:40;;;;;;;2.47;1.40;;;22.00;45.20;;;;;;10139161;28;20048;-54
2024/01/12 11:27:43;;;;;;;4.15;1.33;;;22.00;44.80;;;;;;10140499;28;20560;-50
2024/01/12 11:32:45;;;;;;;2.10;1.20;;;22.00;45.00;;;;;;10144819;28;20088;-51
2024/01/12 11:38:00;;;;;;;5.05;1.70;;;21.90;44.90;;;;;;10145204;28;20040;-49
2024/01/12 11:43:03;;;;;;;3.33;1.25;;;21.90;44.90;;;;;;10145520;28;20055;-56
2024/01/12 11:48:05;;;;;;;1.65;1.10;;;22.00;44.80;;;;;;10132534;28;20479;-50
2024/01/12 11:53:08;;;;;;;1.73;1.30;;;22.30;44.30;;;;;;10140309;28;20144;-51
2024/01/12 11:58:12;;;;;;;1.35;1.10;;;22.20;43.70;;;;;;10140723;28;20060;-49
2024/01/12 12:03:14;;;;;;;4.47;1.70;;;22.20;43.60;;;;;;10136952;28;20470;-49
2024/01/12 12:08:15;;;;;;;2.00;1.48;;;22.20;43.60;;;;;;10139662;28;20171;-51
2024/01/12 12:13:18;;;;;;;3.72;1.40;;;22.10;43.60;;;;;;10147502;28;20070;-56
2024/01/12 12:18:20;;;;;;;1.63;1.10;;;22.50;43.00;;;;;;10141903;28;20400;-49
2024/01/12 12:23:22;;;;;;;2.20;1.10;;;22.60;42.50;;;;;;10142096;28;20143;-50
2024/01/12 12:28:24;;;;;;;2.05;1.50;;;22.50;42.30;;;;;;10136760;28;20063;-49
2024/01/12 12:33:26;;;;;;;3.22;1.50;;;22.40;42.50;;;;;;10146452;28;20048;-51
2024/01/12 12:38:28;;;;;;;2.13;1.23;;;22.30;42.50;;;;;;10136779;28;20051;-50
2024/01/12 12:43:31;;;;;;;2.58;1.45;;;22.40;42.40;;;;;;10140505;28;20154;-52
2024/01/12 12:48:32;;;;;;;1.90;1.40;;;22.30;42.60;;;;;;10143858;28;20494;-50
2024/01/12 12:53:34;;;;;;;1.58;1.20;;;22.70;41.80;;;;;;10144849;28;20422;-49
2024/01/12 12:58:37;;;;;;;2.42;1.50;;;22.70;41.40;;;;;;10142357;28;20135;-51
2024/01/12 13:03:38;;;;;;;2.55;1.33;;;22.80;41.40;;;;;;10134299;28;20135;-49
2024/01/12 13:08:41;;;;;;;2.65;1.45;;;22.80;41.00;;;;;;10140440;28;20040;-53
2024/01/12 13:13:44;;;;;;;2.70;1.58;;;23.00;40.70;;;;;;10139702;28;20457;-51
2024/01/12 13:18:46;;;;;;;2.75;1.52;;;23.00;40.40;;;;;;10136842;28;20055;-52
2024/01/12 13:23:48;;;;;;;2.83;1.30;;;22.90;40.50;;;;;;10144108;28;20131;-52
2024/01/12 13:28:52;;;;;;;3.00;1.77;;;23.00;40.10;;;;;;10154217;28;20059;-52
2024/01/12 13:33:53;;;;;;;3.83;1.90;;;23.00;40.00;;;;;;10148922;28;20419;-52
2024/01/12 13:38:55;;;;;;;4.00;1.80;;;23.00;40.10;;;;;;10144961;28;20106;-53
2024/01/12 13:43:58;;;;;;;3.20;1.55;;;23.00;39.70;;;;;;10150429;28;20048;-55
2024/01/12 13:48:59;;;;;;;3.63;1.67;;;22.80;40.00;;;;;;10152882;28;20045;-54
2024/01/12 13:54:04;;;;;;;7.20;1.80;;;22.90;39.80;;;;;;10151550;28;20427;-54
2024/01/12 13:59:07;;;;;;;3.28;1.58;;;23.10;39.80;;;;;;10149944;28;20044;-52
2024/01/12 14:04:09;;;;;;;3.28;1.40;;;22.90;39.80;;;;;;10154607;28;20058;-52
2024/01/12 14:09:12;;;;;;;3.42;1.80;;;23.00;40.00;;;;;;10155579;28;20690;-50
2024/01/12 14:14:15;;;;;;;4.75;1.80;;;23.30;39.40;;;;;;10153442;28;20489;-48
2024/01/12 14:19:17;;;;;;;4.88;2.00;;;23.30;39.40;;;;;;10138509;28;20095;-53
2024/01/12 14:24:18;;;;;;;3.78;1.80;;;23.30;39.00;;;;;;10150462;28;20053;-49
2024/01/12 14:29:21;;;;;;;8.57;2.10;;;23.30;38.80;;;;;;10147599;28;20127;-51
2024/01/12 14:34:23;;;;;;;8.95;2.50;;;23.20;39.40;;;;;;10152486;28;20049;-50
2024/01/12 14:39:24;;;;;;;13.23;2.17;;;23.30;39.50;;;;;;10144775;28;20055;-55
2024/01/12 14:44:29;;;;;;;14.60;2.35;;;23.30;39.50;;;;;;10152836;28;20048;-50
2024/01/12 14:49:30;;;;;;;8.23;2.10;;;23.20;39.40;;;;;;10143960;28;20036;-49
2024/01/12 14:54:33;;;;;;;9.50;2.30;;;22.90;39.60;;;;;;10150902;28;20494;-53
2024/01/12 14:59:36;;;;;;;8.93;2.30;;;23.10;39.40;;;;;;10144238;28;20143;-51
2024/01/12 15:04:37;;;;;;;5.97;2.17;;;23.30;39.20;;;;;;10149807;28;20052;-49
2024/01/12 15:09:39;;;;;;;11.80;2.65;;;23.30;39.30;;;;;;10146196;28;20044;-51
2024/01/12 15:14:42;;;;;;;13.25;2.38;;;23.30;39.60;;;;;;10146691;28;20674;-49
2024/01/12 15:19:43;;;;;;;17.85;2.53;;;23.20;41.30;;;;;;10154028;28;20050;-51
2024/01/12 15:24:45;;;;;;;17.25;2.33;;;23.30;40.60;;;;;;10142460;28;20063;-53
2024/01/12 15:29:48;;;;;;;16.80;2.42;;;23.40;40.80;;;;;;10145659;28;20053;-49
2024/01/12 15:34:50;;;;;;;18.23;2.95;;;23.10;42.30;;;;;;10146036;28;20063;-51
2024/01/12 15:39:52;;;;;;;16.10;2.72;;;23.10;42.80;;;;;;10149009;28;20044;-48
2024/01/12 15:44:55;;;;;;;29.50;2.85;;;23.00;43.50;;;;;;10148708;28;20067;-53
2024/01/12 15:49:56;;;;;;;48.40;3.80;;;23.10;42.90;;;;;;10150399;28;20044;-53
2024/01/12 15:54:58;;;;;;;15.13;2.30;;;23.20;42.70;;;;;;10147433;28;20048;-53
2024/01/12 16:00:01;;;;;;;9.95;2.13;;;23.50;41.60;;;;;;10154529;28;20052;-51
2024/01/12 16:05:03;;;;;;;10.52;2.17;;;23.60;41.00;;;;;;10141937;28;20048;-49
2024/01/12 16:10:05;;;;;;;6.47;2.25;;;23.60;40.60;;;;;;10150262;28;20048;-48
2024/01/12 16:15:09;;;;;;;9.20;2.25;;;23.70;40.00;;;;;;10146099;28;20058;-49
2024/01/12 16:20:11;;;;;;;14.32;2.45;;;23.60;39.90;;;;;;10144791;28;20074;-48
2024/01/12 16:25:13;;;;;;;9.30;2.13;;;23.40;40.90;;;;;;10146432;28;20051;-51
2024/01/12 16:30:16;;;;;;;13.02;2.50;;;23.40;40.90;;;;;;10145474;28;20058;-53
2024/01/12 16:35:17;;;;;;;9.93;1.90;;;23.30;41.50;;;;;;10152129;28;20143;-49
2024/01/12 16:40:19;;;;;;;6.95;1.95;;;23.50;41.60;;;;;;10148526;28;20051;-49
2024/01/12 16:45:22;;;;;;;11.20;2.22;;;23.50;41.80;;;;;;10146597;28;20562;-53
2024/01/12 16:50:24;;;;;;;13.27;2.10;;;23.70;41.80;;;;;;10148114;28;20048;-49
2024/01/12 16:55:25;;;;;;;36.55;4.53;;;23.80;41.70;;;;;;10143028;28;20052;-54
2024/01/12 17:00:28;;;;;;;20.65;2.65;;;23.70;42.50;;;;;;10157151;28;20059;-51
2024/01/12 17:05:30;;;;;;;29.30;2.88;;;23.70;43.10;;;;;;10158233;28;20494;-52
2024/01/12 17:10:31;;;;;;;10.70;2.20;;;23.80;43.20;;;;;;10160277;28;20611;-52
2024/01/12 17:15:34;;;;;;;9.40;2.10;;;23.60;43.60;;;;;;10168991;28;20048;-51
2024/01/12 17:20:36;;;;;;;14.52;2.20;;;23.60;43.70;;;;;;10160997;28;20047;-50
2024/01/12 17:25:38;;;;;;;8.35;1.75;;;23.80;43.50;;;;;;10158771;28;20070;-54
2024/01/12 17:30:40;;;;;;;9.55;2.55;;;23.80;43.70;;;;;;10160538;28;21673;-50
2024/01/12 17:35:42;;;;;;;7.82;2.10;;;24.00;43.20;;;;;;10185858;28;20054;-49
2024/01/12 17:40:44;;;;;;;13.02;1.63;;;24.20;42.80;;;;;;10175486;28;20044;-50
2024/01/12 17:45:47;;;;;;;11.68;2.00;;;24.10;43.20;;;;;;10177852;28;20057;-53
2024/01/12 17:50:48;;;;;;;6.63;1.83;;;24.10;43.10;;;;;;10178803;28;20163;-52
2024/01/12 17:55:50;;;;;;;8.55;1.40;;;24.20;43.20;;;;;;10170895;28;20060;-56
2024/01/12 18:00:53;;;;;;;4.95;1.40;;;24.30;43.70;;;;;;10170066;28;20062;-52
2024/01/12 18:05:54;;;;;;;4.03;1.35;;;24.20;43.90;;;;;;10147991;28;20433;-54
2024/01/12 18:10:56;;;;;;;10.13;1.70;;;24.30;43.60;;;;;;10143480;28;20044;-53
2024/01/12 18:15:59;;;;;;;12.98;1.45;;;24.70;42.80;;;;;;10148143;28;20044;-55
2024/01/12 18:21:00;;;;;;;7.10;1.63;;;24.90;42.50;;;;;;10147968;28;20062;-51
2024/01/12 18:26:02;;;;;;;8.80;1.65;;;25.00;41.70;;;;;;10149156;28;20051;-55
2024/01/12 18:31:05;;;;;;;7.32;1.85;;;24.80;41.50;;;;;;10155615;28;20040;-54
2024/01/12 18:36:07;;;;;;;6.53;1.85;;;24.80;41.20;;;;;;10151044;28;20127;-53
2024/01/12 18:41:09;;;;;;;4.25;1.33;;;24.90;40.60;;;;;;10142140;28;20048;-53
2024/01/12 18:46:12;;;;;;;5.63;1.42;;;25.00;40.30;;;;;;10156595;28;20052;-56
2024/01/12 18:51:13;;;;;;;5.80;1.52;;;24.90;40.60;;;;;;10146961;28;20166;-52
2024/01/12 18:56:15;;;;;;;7.45;1.95;;;24.90;40.40;;;;;;10148679;28;20048;-56
2024/01/12 19:01:18;;;;;;;19.38;2.25;;;24.70;41.10;;;;;;10148779;28;20054;-54
2024/01/12 19:06:20;;;;;;;23.65;2.58;;;24.60;41.70;;;;;;10154434;28;20083;-54
2024/01/12 19:11:21;;;;;;;45.47;3.00;;;24.60;42.80;;;;;;10147225;28;20147;-58
2024/01/12 19:16:24;;;;;;;24.40;3.13;;;24.60;43.10;;;;;;10151838;28;20487;-57
2024/01/12 19:21:26;;;;;;;19.63;2.75;;;24.20;44.90;;;;;;10144547;28;20123;-54
2024/01/12 19:26:28;;;;;;;19.17;2.47;;;23.80;45.50;;;;;;10148847;28;20040;-56
2024/01/12 19:31:31;;;;;;;19.00;2.65;;;23.70;46.00;;;;;;10144126;28;20060;-53
2024/01/12 19:36:32;;;;;;;14.60;2.17;;;23.90;44.90;;;;;;10147123;28;20139;-55
2024/01/12 19:41:34;;;;;;;14.77;2.45;;;24.30;43.50;;;;;;10146080;28;20590;-54
2024/01/12 19:46:37;;;;;;;16.65;2.47;;;24.20;43.20;;;;;;10149956;28;20075;-51
2024/01/12 19:51:38;;;;;;;14.48;2.53;;;24.00;43.10;;;;;;10147770;28;20048;-54
2024/01/12 19:56:43;;;;;;;6.78;1.92;;;24.20;42.30;;;;;;10146965;28;20048;-52
2024/01/12 20:01:46;;;;;;;12.40;1.85;;;24.10;42.10;;;;;;10138770;28;20120;-57
2024/01/12 20:06:48;;;;;;;12.77;2.10;;;24.00;42.10;;;;;;10138778;28;20416;-56
2024/01/12 20:11:50;;;;;;;18.98;2.38;;;23.80;42.10;;;;;;10149772;28;20568;-49
2024/01/12 20:16:53;;;;;;;9.27;1.80;;;23.60;42.70;;;;;;10153641;28;20076;-55
2024/01/12 20:21:57;;;;;;;11.60;1.88;;;22.90;44.30;;;;;;10160963;28;20052;-49
2024/01/12 20:26:59;;;;;;;9.05;1.90;;;22.80;44.60;;;;;;10156159;28;20048;-50
2024/01/12 20:32:01;;;;;;;8.27;1.90;;;22.60;44.90;;;;;;10157304;28;20062;-54
2024/01/12 20:37:04;;;;;;;7.97;1.77;;;22.80;45.70;;;;;;10149974;28;20072;-50
2024/01/12 20:42:09;;;;;;;7.70;1.80;;;22.90;46.90;;;;;;10150697;28;20422;-52
2024/01/12 20:47:12;;;;;;;5.55;2.00;;;23.10;48.50;;;;;;10156419;28;20058;-47
2024/01/12 20:52:14;;;;;;;6.70;2.10;;;22.90;47.40;;;;;;10154237;28;20048;-47
2024/01/12 20:57:16;;;;;;;5.55;1.80;;;22.90;48.90;;;;;;10164454;28;20140;-53
2024/01/12 21:02:19;;;;;;;4.90;1.70;;;22.80;47.80;;;;;;10164014;28;20060;-51
2024/01/12 21:07:20;;;;;;;5.13;1.70;;;22.70;44.80;;;;;;10160707;28;20144;-48
2024/01/12 21:12:22;;;;;;;3.70;1.30;;;22.70;46.20;;;;;;10149986;28;20055;-47
2024/01/12 21:17:25;;;;;;;5.93;1.63;;;22.70;46.80;;;;;;10146483;28;20750;-47
2024/01/12 21:22:27;;;;;;;3.67;1.83;;;22.60;49.10;;;;;;10149908;28;20078;-53
2024/01/12 21:27:28;;;;;;;4.00;1.40;;;22.80;43.40;;;;;;10159744;28;20171;-51
2024/01/12 21:32:31;;;;;;;3.35;1.52;;;22.50;43.70;;;;;;10152998;28;20044;-51
2024/01/12 21:37:33;;;;;;;6.40;1.50;;;22.70;43.40;;;;;;10152195;28;20520;-54
2024/01/12 21:42:35;;;;;;;5.50;1.65;;;22.60;43.30;;;;;;10146973;28;20448;-52
2024/01/12 21:47:38;;;;;;;5.32;1.50;;;22.50;43.20;;;;;;10152280;28;20056;-51
2024/01/12 21:52:40;;;;;;;4.95;1.63;;;22.40;44.10;;;;;;10143125;28;20061;-47
2024/01/12 21:57:41;;;;;;;3.83;1.55;;;22.10;45.90;;;;;;10154020;28;20077;-48
2024/01/12 22:02:44;;;;;;;5.55;1.70;;;22.10;46.60;;;;;;10160253;28;20044;-47
2024/01/12 22:07:46;;;;;;;5.93;1.50;;;22.00;47.00;;;;;;10166045;28;20044;-48
2024/01/12 22:12:49;;;;;;;4.93;1.35;;;21.80;47.60;;;;;;10163395;28;20125;-48
2024/01/12 22:17:52;;;;;;;2.67;1.15;;;21.60;47.30;;;;;;10163279;28;20064;-47
2024/01/12 22:22:54;;;;;;;5.10;1.33;;;21.30;48.10;;;;;;10166023;28;20058;-49
2024/01/12 22:27:55;;;;;;;6.80;1.40;;;21.10;48.30;;;;;;10160616;28;20048;-49
2024/01/12 22:32:58;;;;;;;5.32;1.33;;;21.00;48.50;;;;;;10149786;29;20055;-49
2024/01/12 22:38:00;;;;;;;3.50;1.35;;;20.90;48.80;;;;;;10155892;29;20139;-51
2024/01/12 22:43:01;;;;;;;4.60;1.40;;;21.40;47.60;;;;;;10156931;28;20139;-47
2024/01/12 22:48:05;;;;;;;3.20;1.33;;;21.60;46.80;;;;;;10154435;29;20052;-48
2024/01/12 22:53:07;;;;;;;4.82;1.20;;;21.30;47.80;;;;;;10154163;29;20469;-49
2024/01/12 22:58:08;;;;;;;5.07;1.42;;;21.00;48.30;;;;;;10152160;29;20480;-48
2024/01/12 23:03:11;;;;;;;4.90;1.38;;;20.80;49.00;;;;;;10150237;29;20395;-47
2024/01/12 23:08:13;;;;;;;4.07;1.60;;;20.70;49.90;;;;;;10155666;29;20146;-48
2024/01/12 23:13:14;;;;;;;3.50;1.25;;;20.60;50.30;;;;;;10156914;28;20051;-48
2024/01/12 23:18:17;;;;;;;3.67;1.00;;;20.50;50.90;;;;;;10151764;28;20054;-47
2024/01/12 23:23:19;;;;;;;6.45;1.40;;;20.50;51.40;;;;;;10148908;28;20512;-50
2024/01/12 23:28:20;;;;;;;5.88;1.30;;;20.50;51.20;;;;;;10159343;29;20076;-47
2024/01/12 23:33:23;;;;;;;3.67;1.20;;;20.30;51.60;;;;;;10152699;29;20135;-51
2024/01/12 23:38:25;;;;;;;3.08;1.08;;;20.30;51.80;;;;;;10146695;28;20127;-50
2024/01/12 23:43:27;;;;;;;3.53;1.27;;;20.30;51.80;;;;;;10159753;29;20055;-53
2024/01/12 23:48:30;;;;;;;2.25;1.05;;;20.10;51.90;;;;;;10168634;28;20544;-47
2024/01/12 23:53:31;;;;;;;2.30;1.20;;;20.10;52.10;;;;;;10161455;28;20512;-50
2024/01/12 23:58:33;;;;;;;2.58;1.05;;;20.20;51.60;;;;;;10157510;28;20634;-47
